Time;durP1;ratioP1;P1;durP2;ratioP2;P2;SDS_P1;SDS_P2;PMS_P1;PMS_P2;Temp;Humidity;BMP_temperature;BMP_pressure;BME280_temperature;BME280_humidity;BME280_pressure;Samples;Min_cycle;Max_cycle;Signal;HPM_P1;HPM_P2
2023/03/13 00:00:52;;;;;;;7.18;5.40;;;;;;;4.04;45.31;101719.31;5017027;28;20725;-78
2023/03/13 00:03:18;;;;;;;8.00;5.70;;;;;;;4.20;45.20;101727.00;5012013;28;20402;-78
2023/03/13 00:05:43;;;;;;;7.63;5.57;;;;;;;4.11;45.01;101723.19;5015917;28;20407;-78
2023/03/13 00:08:09;;;;;;;9.05;5.75;;;;;;;4.04;45.11;101726.34;5029868;28;20394;-78
2023/03/13 00:10:39;;;;;;;8.10;6.43;;;;;;;4.14;44.72;101717.75;5018085;28;21423;-78
2023/03/13 00:13:06;;;;;;;10.20;6.80;;;;;;;4.40;44.57;101723.00;5012666;28;20412;-78
2023/03/13 00:15:31;;;;;;;7.82;5.70;;;;;;;4.35;44.49;101715.44;5012654;28;20384;-78
2023/03/13 00:17:57;;;;;;;8.43;6.15;;;;;;;4.33;44.34;101721.75;5031022;28;20396;-78
2023/03/13 00:20:22;;;;;;;8.75;6.55;;;;;;;4.30;44.46;101717.53;5015930;28;20399;-79
2023/03/13 00:22:48;;;;;;;8.37;6.60;;;;;;;4.15;44.99;101713.34;5016466;28;20395;-78
2023/03/13 00:25:13;;;;;;;9.43;7.00;;;;;;;4.07;45.24;101726.97;5015538;28;20469;-79
2023/03/13 00:27:39;;;;;;;8.93;6.37;;;;;;;3.91;45.22;101716.66;5015228;28;20396;-79
2023/03/13 00:30:05;;;;;;;10.00;6.90;;;;;;;3.92;45.61;101723.56;5015274;28;20388;-79
2023/03/13 00:32:30;;;;;;;9.80;6.45;;;;;;;3.88;45.63;101729.13;5013562;28;20388;-78
2023/03/13 00:34:56;;;;;;;8.98;6.78;;;;;;;3.87;45.73;101733.56;5012720;28;20478;-79
2023/03/13 00:37:21;;;;;;;10.38;6.72;;;;;;;3.85;45.74;101739.81;5014896;28;20381;-79
2023/03/13 00:39:46;;;;;;;11.67;6.40;;;;;;;3.57;46.36;101734.59;5015888;28;20835;-79
2023/03/13 00:42:12;;;;;;;9.10;6.20;;;;;;;3.58;46.35;101738.06;5014748;28;20395;-79
2023/03/13 00:44:37;;;;;;;9.65;6.65;;;;;;;3.52;46.56;101727.97;5013912;28;20487;-79
2023/03/13 00:47:04;;;;;;;8.70;6.17;;;;;;;3.49;46.44;101731.63;5014550;28;20391;-79
2023/03/13 00:49:30;;;;;;;9.13;5.82;;;;;;;3.37;46.77;101725.41;5014026;28;20707;-79
2023/03/13 00:51:56;;;;;;;7.80;5.47;;;;;;;3.28;46.98;101725.13;5013905;28;20391;-78
2023/03/13 00:54:21;;;;;;;7.20;4.90;;;;;;;3.23;46.82;101722.81;5012355;28;20395;-77
2023/03/13 00:56:47;;;;;;;7.20;4.90;;;;;;;3.22;46.74;101719.38;5011848;28;20482;-77
2023/03/13 00:59:13;;;;;;;6.90;5.13;;;;;;;3.30;46.75;101721.50;5011553;28;20387;-78
2023/03/13 01:01:39;;;;;;;5.20;4.70;;;;;;;3.22;46.79;101710.66;5011424;28;20383;-77
2023/03/13 01:04:07;;;;;;;6.30;4.90;;;;;;;3.30;46.93;101718.03;5011259;28;20911;-77
2023/03/13 01:06:35;;;;;;;6.25;5.22;;;;;;;3.34;46.64;101722.97;5010809;28;20419;-78
2023/03/13 01:09:03;;;;;;;6.18;4.82;;;;;;;3.25;46.64;101715.69;5010765;28;20407;-78
2023/03/13 01:11:32;;;;;;;6.70;5.13;;;;;;;3.22;46.80;101714.13;5009834;28;20911;-77
2023/03/13 01:14:00;;;;;;;7.72;5.32;;;;;;;3.24;46.63;101720.09;5010748;28;20404;-77
2023/03/13 01:16:27;;;;;;;9.95;6.20;;;;;;;3.29;46.74;101717.19;5011185;28;20387;-76
2023/03/13 01:18:59;;;;;;;9.98;6.55;;;;;;;3.35;46.56;101722.03;5014701;28;20395;-76
2023/03/13 01:21:24;;;;;;;9.52;6.28;;;;;;;3.29;46.46;101718.97;5014382;28;20381;-77
2023/03/13 01:23:51;;;;;;;8.07;5.80;;;;;;;3.34;46.65;101711.66;5015445;28;20411;-78
2023/03/13 01:26:17;;;;;;;7.60;5.07;;;;;;;3.39;46.46;101714.81;5014318;28;20934;-78
2023/03/13 01:28:43;;;;;;;6.47;4.87;;;;;;;3.45;46.21;101699.53;5012587;28;20396;-78
2023/03/13 01:31:14;;;;;;;7.50;4.90;;;;;;;3.63;46.22;101701.91;5013116;28;20472;-78
2023/03/13 01:33:40;;;;;;;6.38;4.97;;;;;;;3.67;45.98;101695.50;5011314;28;20391;-78
2023/03/13 01:36:06;;;;;;;7.00;5.07;;;;;;;3.71;45.52;101702.25;5013471;28;20499;-78
2023/03/13 01:38:32;;;;;;;7.90;5.50;;;;;;;3.80;45.68;101706.06;5013041;28;20398;-78
2023/03/13 01:40:57;;;;;;;6.00;4.78;;;;;;;3.80;45.50;101708.66;5011780;28;20880;-78
2023/03/13 01:43:29;;;;;;;5.63;4.68;;;;;;;3.72;45.58;101703.91;5012814;28;20399;-78
2023/03/13 01:46:12;;;;;;;6.50;5.18;;;;;;;3.70;45.69;101720.69;5013315;28;20419;-78
2023/03/13 01:48:56;;;;;;;5.85;4.78;;;;;;;3.64;45.83;101719.31;5012944;28;20392;-78
2023/03/13 01:51:27;;;;;;;6.07;4.65;;;;;;;3.57;45.96;101731.16;5011263;28;20466;-78
2023/03/13 01:53:58;;;;;;;6.57;4.90;;;;;;;3.52;46.07;101720.94;5012611;28;20380;-78
2023/03/13 01:56:36;;;;;;;6.88;5.13;;;;;;;3.60;46.09;101730.94;5012300;28;20392;-77
2023/03/13 01:59:03;;;;;;;7.00;5.30;;;;;;;3.68;45.97;101722.59;5012359;28;20395;-78
2023/03/13 02:01:29;;;;;;;8.07;5.47;;;;;;;3.79;45.64;101720.94;5011687;28;20411;-78
2023/03/13 02:03:57;;;;;;;7.80;5.50;;;;;;;3.74;45.57;101712.50;5014720;28;20408;-79
2023/03/13 02:06:24;;;;;;;11.27;6.78;;;;;;;3.83;45.47;101726.81;5014092;28;20780;-78
2023/03/13 02:08:58;;;;;;;10.65;7.18;;;;;;;3.90;45.14;101735.13;5013295;28;20478;-78
2023/03/13 02:11:34;;;;;;;10.55;5.65;;;;;;;3.80;45.31;101745.38;5013007;28;20462;-78
2023/03/13 02:14:03;;;;;;;8.25;6.03;;;;;;;3.72;45.34;101738.00;5011835;28;20388;-79
2023/03/13 02:16:31;;;;;;;8.17;5.43;;;;;;;3.69;45.49;101734.75;5013648;28;20395;-78
2023/03/13 02:18:56;;;;;;;7.17;5.20;;;;;;;3.65;45.66;101739.34;5012927;28;20392;-78
2023/03/13 02:21:38;;;;;;;6.63;5.30;;;;;;;3.69;45.72;101737.34;5011823;28;20395;-78
2023/03/13 02:24:27;;;;;;;9.07;6.43;;;;;;;3.61;45.58;101738.69;5015186;28;20491;-78
2023/03/13 02:26:52;;;;;;;11.75;7.32;;;;;;;3.53;45.68;101742.75;5009217;28;20400;-78
2023/03/13 02:29:18;;;;;;;6.60;5.20;;;;;;;3.56;45.68;101756.50;5017541;28;20418;-78
2023/03/13 02:31:47;;;;;;;7.50;5.10;;;;;;;3.60;46.03;101752.75;5017687;28;20468;-78
2023/03/13 02:34:21;;;;;;;7.43;5.38;;;;;;;3.66;45.65;101779.53;5016624;28;20384;-78
2023/03/13 02:36:48;;;;;;;6.73;5.20;;;;;;;3.60;45.47;101778.13;5017867;28;20868;-78
2023/03/13 02:39:17;;;;;;;6.55;4.70;;;;;;;3.56;45.70;101784.50;5017796;28;20394;-78
2023/03/13 02:41:45;;;;;;;6.53;5.18;;;;;;;3.49;45.88;101797.16;5017005;28;20445;-78
2023/03/13 02:44:11;;;;;;;8.55;5.65;;;;;;;3.49;46.30;101804.19;5017038;28;20466;-79
2023/03/13 02:46:49;;;;;;;8.93;6.10;;;;;;;3.48;46.03;101805.16;5016864;28;20400;-77
2023/03/13 02:49:32;;;;;;;8.43;6.13;;;;;;;3.42;46.59;101832.56;5016356;28;20396;-78
2023/03/13 02:52:20;;;;;;;7.50;5.50;;;;;;;3.27;46.87;101820.41;5016541;28;20498;-78
2023/03/13 02:54:49;;;;;;;15.82;7.50;;;;;;;3.14;47.00;101842.13;5016846;28;20407;-78
2023/03/13 02:57:15;;;;;;;9.25;6.03;;;;;;;3.05;47.33;101845.31;5016366;28;20392;-78
2023/03/13 02:59:40;;;;;;;7.10;5.37;;;;;;;2.98;47.41;101852.69;5015920;28;20413;-78
2023/03/13 03:02:06;;;;;;;6.85;5.05;;;;;;;2.91;47.50;101861.03;5013155;28;20404;-76
2023/03/13 03:04:31;;;;;;;6.65;5.35;;;;;;;2.94;47.37;101861.69;5014128;28;20404;-77
2023/03/13 03:06:57;;;;;;;7.33;4.87;;;;;;;3.02;47.32;101871.69;5015636;28;20435;-79
2023/03/13 03:09:22;;;;;;;6.93;5.72;;;;;;;3.03;47.31;101876.00;5014836;28;20389;-76
2023/03/13 03:11:49;;;;;;;7.17;5.37;;;;;;;2.96;47.26;101878.16;5014701;28;20570;-78
2023/03/13 03:14:15;;;;;;;7.40;5.35;;;;;;;2.92;47.46;101870.53;5015807;28;20403;-78
2023/03/13 03:16:41;;;;;;;6.95;5.35;;;;;;;2.97;47.18;101869.38;5014338;28;20861;-78
2023/03/13 03:19:07;;;;;;;6.57;4.75;;;;;;;3.06;46.87;101875.81;5015648;28;20836;-79
2023/03/13 03:21:33;;;;;;;6.90;5.22;;;;;;;3.12;46.94;101891.16;5013961;28;20380;-78
2023/03/13 03:23:59;;;;;;;8.82;5.47;;;;;;;2.97;47.01;101879.84;5013335;28;20415;-76
2023/03/13 03:26:26;;;;;;;6.97;5.25;;;;;;;3.03;46.94;101884.69;5014223;28;20388;-76
2023/03/13 03:28:51;;;;;;;8.57;5.40;;;;;;;3.00;47.00;101881.41;5014223;28;20868;-77
2023/03/13 03:31:17;;;;;;;9.57;5.80;;;;;;;2.94;47.04;101887.88;5013447;28;20435;-78
2023/03/13 03:33:43;;;;;;;7.40;5.23;;;;;;;2.94;47.34;101892.28;5013608;28;20380;-76
2023/03/13 03:36:15;;;;;;;9.38;6.70;;;;;;;2.81;47.56;101892.13;5011724;28;21070;-76
2023/03/13 03:38:41;;;;;;;8.35;5.53;;;;;;;2.81;47.57;101893.00;5010921;28;20470;-77
2023/03/13 03:41:07;;;;;;;8.93;5.95;;;;;;;2.90;47.40;101893.38;5013255;28;20855;-78
2023/03/13 03:43:33;;;;;;;13.27;8.27;;;;;;;3.02;47.44;101890.84;5011920;28;20427;-77
2023/03/13 03:45:59;;;;;;;10.60;7.13;;;;;;;3.24;46.70;101898.28;5011427;28;20435;-77
2023/03/13 03:48:24;;;;;;;8.15;5.57;;;;;;;3.35;46.40;101892.41;5012993;28;20407;-77
2023/03/13 03:50:50;;;;;;;11.27;7.05;;;;;;;3.28;46.30;101895.47;5013094;28;20389;-78
2023/03/13 03:53:15;;;;;;;9.60;5.80;;;;;;;3.11;46.96;101909.59;5012856;28;20395;-78
2023/03/13 03:55:41;;;;;;;10.03;6.60;;;;;;;3.17;46.46;101914.44;5012584;28;20391;-78
2023/03/13 03:58:07;;;;;;;10.07;6.57;;;;;;;3.29;46.55;101920.75;5013748;28;20407;-79
2023/03/13 04:00:32;;;;;;;12.32;6.68;;;;;;;3.32;46.43;101924.03;5014024;28;20392;-78
2023/03/13 04:02:58;;;;;;;10.73;6.40;;;;;;;3.23;46.73;101919.34;5015097;28;20780;-78
2023/03/13 04:05:23;;;;;;;7.47;6.00;;;;;;;3.25;46.40;101934.03;5011942;28;20765;-77
2023/03/13 04:07:49;;;;;;;7.13;5.37;;;;;;;3.24;46.44;101939.34;5012655;28;20423;-77
2023/03/13 04:10:15;;;;;;;9.60;6.13;;;;;;;3.30;46.48;101938.16;5011037;28;20396;-77
2023/03/13 04:12:41;;;;;;;6.47;5.70;;;;;;;3.42;46.17;101951.38;5014447;28;20419;-78
2023/03/13 04:15:07;;;;;;;7.60;5.60;;;;;;;3.34;46.25;101948.34;5013126;28;20442;-77
2023/03/13 04:17:33;;;;;;;8.68;5.97;;;;;;;3.49;45.95;101954.44;5012280;28;20396;-77
2023/03/13 04:19:58;;;;;;;8.97;6.17;;;;;;;3.53;45.89;101942.84;5012894;28;20483;-77
2023/03/13 04:22:24;;;;;;;16.10;9.40;;;;;;;3.54;45.59;101955.00;5011677;28;20462;-79
2023/03/13 04:24:49;;;;;;;21.23;12.77;;;;;;;3.52;45.98;101946.41;5013304;28;20757;-77
2023/03/13 04:27:15;;;;;;;24.07;14.00;;;;;;;3.51;45.94;101954.34;5013986;28;20381;-79
2023/03/13 04:29:40;;;;;;;19.85;10.95;;;;;;;3.53;45.89;101965.59;5014015;28;20388;-77
2023/03/13 04:32:06;;;;;;;19.77;11.05;;;;;;;3.59;45.62;101962.59;5011106;28;20384;-77
2023/03/13 04:34:31;;;;;;;21.53;12.20;;;;;;;3.59;45.82;101962.59;5012860;28;20384;-77
2023/03/13 04:36:57;;;;;;;29.17;15.50;;;;;;;3.64;45.52;101955.31;5012154;28;20741;-77
2023/03/13 04:39:24;;;;;;;32.47;17.13;;;;;;;3.68;45.30;101940.22;5011939;28;20466;-77
2023/03/13 04:41:53;;;;;;;28.10;16.92;;;;;;;3.83;44.91;101941.88;5011977;28;20479;-77
2023/03/13 04:44:20;;;;;;;23.70;12.35;;;;;;;3.82;44.88;101927.94;5012426;28;20919;-78
2023/03/13 04:46:46;;;;;;;21.77;19.15;;;;;;;3.91;45.00;101931.78;5012104;28;20400;-78
2023/03/13 04:49:11;;;;;;;20.00;14.80;;;;;;;3.99;44.85;101933.91;5013155;28;20387;-78
2023/03/13 04:51:37;;;;;;;16.77;10.87;;;;;;;3.92;45.08;101935.22;5011014;28;20407;-79
2023/03/13 04:54:02;;;;;;;17.50;12.07;;;;;;;3.98;45.00;101942.69;5011426;28;20557;-79
2023/03/13 04:56:28;;;;;;;17.05;11.95;;;;;;;4.06;44.99;101936.97;5012125;28;20392;-78
2023/03/13 04:58:53;;;;;;;20.42;13.38;;;;;;;4.07;44.91;101934.25;5013504;28;20452;-78
2023/03/13 05:01:19;;;;;;;20.60;12.38;;;;;;;4.14;44.41;101939.94;5011936;28;20392;-78
2023/03/13 05:03:44;;;;;;;17.33;11.53;;;;;;;4.22;44.25;101935.06;5010749;28;20388;-77
2023/03/13 05:06:11;;;;;;;16.87;10.47;;;;;;;4.30;44.60;101950.31;5010470;28;20474;-77
2023/03/13 05:08:37;;;;;;;16.70;9.93;;;;;;;4.31;44.40;101944.13;5011166;28;20391;-78
2023/03/13 05:11:03;;;;;;;13.93;9.15;;;;;;;4.28;44.72;101946.94;5010458;28;20402;-78
2023/03/13 05:13:28;;;;;;;20.13;10.88;;;;;;;4.24;44.72;101945.47;5011706;28;20416;-78
2023/03/13 05:15:56;;;;;;;14.07;10.70;;;;;;;4.31;44.91;101949.38;5009709;28;21458;-78
2023/03/13 05:18:21;;;;;;;16.33;10.67;;;;;;;4.40;44.47;101954.03;5012111;28;20403;-76
2023/03/13 05:20:47;;;;;;;19.15;10.50;;;;;;;4.50;44.57;101952.50;5010836;28;20399;-77
2023/03/13 05:23:12;;;;;;;19.05;10.43;;;;;;;4.53;44.33;101947.03;5010416;28;20463;-78
2023/03/13 05:25:38;;;;;;;20.90;11.70;;;;;;;4.59;44.55;101946.66;5012443;28;20406;-78
2023/03/13 05:28:03;;;;;;;25.37;11.77;;;;;;;4.69;44.62;101944.25;5018041;28;20398;-77
2023/03/13 05:30:29;;;;;;;18.63;10.57;;;;;;;4.72;44.52;101948.47;5012574;28;20485;-77
2023/03/13 05:32:54;;;;;;;15.57;9.00;;;;;;;4.52;44.60;101939.25;5024069;28;20451;-76
2023/03/13 05:35:20;;;;;;;12.87;8.07;;;;;;;4.53;44.84;101941.78;5022945;28;20379;-79
2023/03/13 05:37:46;;;;;;;10.88;7.57;;;;;;;4.68;44.59;101949.59;5014737;28;20438;-77
2023/03/13 05:40:12;;;;;;;10.07;7.32;;;;;;;4.77;44.64;101944.59;5002421;28;20736;-77
2023/03/13 05:42:38;;;;;;;11.30;7.13;;;;;;;4.85;44.30;101944.06;5021505;28;20454;-77
2023/03/13 05:45:04;;;;;;;14.10;7.97;;;;;;;4.95;43.90;101946.91;5022000;28;20949;-77
2023/03/13 05:47:30;;;;;;;13.70;8.45;;;;;;;5.02;44.11;101947.34;5011811;28;20872;-77
2023/03/13 05:49:55;;;;;;;13.23;8.47;;;;;;;5.14;43.88;101951.78;5024142;28;20401;-76
2023/03/13 05:52:21;;;;;;;13.13;8.53;;;;;;;5.18;44.08;101950.63;5025707;28;20520;-78
2023/03/13 05:54:47;;;;;;;12.50;9.20;;;;;;;5.22;43.80;101946.88;5026786;28;20392;-79
2023/03/13 05:57:13;;;;;;;13.50;9.13;;;;;;;5.30;43.72;101954.22;5011176;28;20422;-78
2023/03/13 05:59:38;;;;;;;14.65;9.15;;;;;;;5.44;43.26;101966.41;5014505;28;21059;-79
2023/03/13 06:02:04;;;;;;;11.48;8.82;;;;;;;5.55;43.41;101956.84;5016057;28;20890;-80
2023/03/13 06:04:29;;;;;;;16.67;9.40;;;;;;;5.69;42.98;101957.66;5015507;28;20408;-78
2023/03/13 06:06:54;;;;;;;12.67;9.13;;;;;;;5.68;43.25;101963.88;5015746;28;20396;-78
2023/03/13 06:09:20;;;;;;;15.97;9.97;;;;;;;5.69;42.78;101950.63;5014893;28;20487;-80
2023/03/13 06:11:46;;;;;;;20.10;11.27;;;;;;;5.74;43.28;101956.41;5010388;28;20425;-78
2023/03/13 06:14:11;;;;;;;19.13;13.73;;;;;;;5.89;42.96;101967.63;5014815;28;20395;-78
2023/03/13 06:16:37;;;;;;;25.30;17.30;;;;;;;5.82;42.75;101957.66;5014578;28;20486;-78
2023/03/13 06:19:02;;;;;;;23.77;13.80;;;;;;;5.79;42.73;101948.16;5014322;28;20392;-79
2023/03/13 06:21:28;;;;;;;19.80;12.85;;;;;;;5.91;42.60;101949.94;5014899;28;20387;-78
2023/03/13 06:23:54;;;;;;;26.33;14.32;;;;;;;5.99;42.22;101957.31;5015131;28;20404;-78
2023/03/13 06:26:20;;;;;;;28.25;16.38;;;;;;;6.12;42.04;101942.34;5015236;28;20450;-79
2023/03/13 06:28:46;;;;;;;23.90;13.85;;;;;;;6.23;41.98;101938.06;5014939;28;20392;-76
2023/03/13 06:31:11;;;;;;;20.17;12.90;;;;;;;6.35;42.05;101942.44;5015122;28;20386;-77
2023/03/13 06:33:37;;;;;;;26.47;13.20;;;;;;;6.45;42.58;101938.19;5014070;28;20376;-77
2023/03/13 06:36:03;;;;;;;19.37;11.97;;;;;;;6.52;42.42;101943.88;5015222;28;20394;-79
2023/03/13 06:38:29;;;;;;;19.70;11.65;;;;;;;6.62;41.85;101939.56;5015947;28;20442;-78
2023/03/13 06:40:55;;;;;;;18.25;11.52;;;;;;;6.75;41.58;101943.94;5015604;28;20396;-77
2023/03/13 06:43:20;;;;;;;14.38;10.32;;;;;;;6.76;41.77;101943.00;5015650;28;20391;-77
2023/03/13 06:45:46;;;;;;;13.30;9.60;;;;;;;6.83;41.55;101952.13;5015058;28;20400;-78
2023/03/13 06:48:12;;;;;;;16.50;10.60;;;;;;;6.86;41.43;101965.91;5015042;28;20396;-77
2023/03/13 06:50:38;;;;;;;16.07;10.53;;;;;;;6.99;40.99;101970.25;5013525;28;20387;-77
2023/03/13 06:53:04;;;;;;;70.28;47.72;;;;;;;7.09;40.64;101968.59;5033097;28;20751;-78
2023/03/13 06:55:29;;;;;;;26.13;17.23;;;;;;;7.12;40.93;101971.00;5016515;28;20878;-78
2023/03/13 06:57:55;;;;;;;18.58;12.60;;;;;;;7.16;41.04;101968.97;5032016;28;20811;-78
2023/03/13 07:00:21;;;;;;;18.17;12.60;;;;;;;7.34;41.12;101972.00;5011846;28;20382;-78
2023/03/13 07:02:46;;;;;;;15.85;12.18;;;;;;;7.44;40.46;101978.25;5033708;28;20425;-78
2023/03/13 07:05:13;;;;;;;18.43;11.40;;;;;;;7.45;40.18;101983.44;5033263;28;20434;-79
2023/03/13 07:07:40;;;;;;;18.58;11.20;;;;;;;7.26;40.13;101983.97;5032900;28;20434;-79
2023/03/13 07:10:06;;;;;;;18.67;11.60;;;;;;;7.32;40.25;101992.38;5031844;28;20391;-78
2023/03/13 07:12:34;;;;;;;16.52;10.02;;;;;;;7.31;40.37;101995.97;5033221;28;20445;-77
2023/03/13 07:14:59;;;;;;;14.02;8.90;;;;;;;7.29;40.54;102004.00;5032743;28;20438;-76
2023/03/13 07:17:25;;;;;;;10.85;8.02;;;;;;;7.36;40.26;102007.84;5033972;28;20811;-78
2023/03/13 07:19:50;;;;;;;10.47;6.83;;;;;;;7.37;40.40;102006.06;5032681;28;20382;-76
2023/03/13 07:22:16;;;;;;;9.87;6.70;;;;;;;7.41;40.52;102004.88;5032600;28;20480;-78
2023/03/13 07:24:41;;;;;;;9.90;7.10;;;;;;;7.61;40.62;102013.88;5032905;28;20407;-79
2023/03/13 07:27:07;;;;;;;10.30;6.80;;;;;;;7.81;40.86;102014.97;5035568;28;20398;-78
2023/03/13 07:29:32;;;;;;;11.83;7.13;;;;;;;7.89;40.60;102011.75;5032358;28;20806;-78
2023/03/13 07:31:58;;;;;;;8.05;6.50;;;;;;;8.03;40.27;102003.56;5014456;28;20384;-78
2023/03/13 07:34:23;;;;;;;9.00;6.80;;;;;;;8.03;40.81;101999.13;5014408;28;20507;-78
2023/03/13 07:36:49;;;;;;;8.70;7.03;;;;;;;8.03;40.81;102009.69;5017011;28;20452;-80
2023/03/13 07:39:14;;;;;;;8.70;6.77;;;;;;;7.97;40.99;102006.69;5014876;28;20414;-79
2023/03/13 07:41:40;;;;;;;9.10;7.10;;;;;;;8.12;40.89;102008.13;5014911;28;20388;-77
2023/03/13 07:44:06;;;;;;;10.55;7.18;;;;;;;8.37;40.63;102008.78;5013891;28;20404;-80
2023/03/13 07:46:31;;;;;;;9.68;6.90;;;;;;;8.42;40.18;102002.19;5015452;28;20407;-79
2023/03/13 07:48:57;;;;;;;11.17;7.40;;;;;;;8.60;39.94;101997.22;5017135;28;20394;-78
2023/03/13 07:51:24;;;;;;;8.60;6.70;;;;;;;8.76;40.53;102004.75;5024999;28;20384;-79
2023/03/13 07:53:50;;;;;;;11.40;8.52;;;;;;;8.87;39.64;102014.44;5021848;28;20399;-79
2023/03/13 07:56:23;;;;;;;8.60;5.47;;;;;;;8.96;38.51;101999.63;5021197;28;20384;-77
2023/03/13 07:58:49;;;;;;;7.43;4.83;;;;;;;8.90;37.68;102000.13;5015052;28;20388;-77
2023/03/13 08:01:22;;;;;;;7.25;5.25;;;;;;;9.05;36.88;101998.00;5015844;28;20749;-78
2023/03/13 08:03:49;;;;;;;5.22;4.47;;;;;;;9.11;36.71;102003.63;5013685;28;20487;-77
2023/03/13 08:06:20;;;;;;;4.87;3.90;;;;;;;9.09;36.01;101989.72;5012998;28;20415;-78
2023/03/13 08:08:46;;;;;;;6.65;4.53;;;;;;;9.24;36.24;101989.34;5012053;28;20420;-79
2023/03/13 08:11:15;;;;;;;5.77;4.60;;;;;;;9.33;36.15;101991.25;5012460;28;20466;-77
2023/03/13 08:13:41;;;;;;;5.03;4.28;;;;;;;9.18;36.15;101988.94;5013990;28;20399;-77
2023/03/13 08:16:09;;;;;;;5.80;4.50;;;;;;;9.46;36.79;101991.03;5013678;28;20392;-76
2023/03/13 08:18:37;;;;;;;5.72;4.00;;;;;;;9.69;36.65;101991.72;5014152;28;20426;-77
2023/03/13 08:21:07;;;;;;;4.75;3.88;;;;;;;9.79;35.67;101992.56;5012587;28;20396;-78
2023/03/13 08:23:34;;;;;;;6.80;4.38;;;;;;;9.72;35.49;101989.63;5014044;28;20479;-78
2023/03/13 08:26:04;;;;;;;5.95;4.45;;;;;;;9.61;35.73;101979.13;4997135;28;20424;-77
2023/03/13 08:28:29;;;;;;;5.85;4.13;;;;;;;9.80;35.08;101986.31;5012750;28;20403;-79
2023/03/13 08:30:55;;;;;;;4.80;4.10;;;;;;;9.85;35.09;101983.25;5014936;28;20450;-76
2023/03/13 08:33:22;;;;;;;4.30;3.90;;;;;;;10.03;35.47;101980.78;5013615;28;20434;-76
2023/03/13 08:35:47;;;;;;;4.80;4.10;;;;;;;10.22;35.34;101982.66;5012437;28;20391;-78
2023/03/13 08:38:13;;;;;;;6.65;4.30;;;;;;;10.44;35.76;101971.00;5013249;28;20372;-77
2023/03/13 08:40:38;;;;;;;6.43;4.20;;;;;;;10.55;35.57;101968.22;5007079;28;20392;-78
2023/03/13 08:43:04;;;;;;;6.20;4.77;;;;;;;10.62;35.51;101972.00;5013711;28;20390;-77
2023/03/13 08:45:29;;;;;;;7.43;5.35;;;;;;;10.74;36.09;101962.09;5012424;28;20956;-76
2023/03/13 08:47:54;;;;;;;8.00;5.30;;;;;;;10.82;36.54;101964.88;5011891;28;20879;-76
2023/03/13 08:50:20;;;;;;;6.55;4.97;;;;;;;10.94;37.25;101954.13;5010712;28;20392;-77
2023/03/13 08:52:45;;;;;;;7.50;4.90;;;;;;;10.92;36.88;101956.91;5012366;28;20392;-76
2023/03/13 08:55:11;;;;;;;7.30;5.50;;;;;;;10.93;36.49;101952.44;5015714;28;20378;-76
2023/03/13 08:57:36;;;;;;;6.53;5.20;;;;;;;10.73;36.52;101948.97;5027874;28;20397;-76
2023/03/13 09:00:05;;;;;;;6.23;4.93;;;;;;;10.69;36.28;101941.28;5030133;28;20819;-78
2023/03/13 09:02:31;;;;;;;6.15;4.97;;;;;;;10.69;36.32;101941.28;5018787;28;20380;-77
2023/03/13 09:04:56;;;;;;;6.22;5.18;;;;;;;10.84;36.35;101931.09;5023548;28;20406;-77
2023/03/13 09:07:21;;;;;;;6.40;4.93;;;;;;;10.84;35.85;101939.06;5030679;28;20469;-77
2023/03/13 09:09:49;;;;;;;7.77;4.67;;;;;;;10.85;35.50;101938.06;5029852;28;20537;-77
2023/03/13 09:12:14;;;;;;;9.55;4.88;;;;;;;10.93;35.03;101929.41;5029011;28;20759;-78
2023/03/13 09:14:40;;;;;;;6.30;4.55;;;;;;;10.98;34.67;101924.50;5030804;28;20382;-77
2023/03/13 09:17:05;;;;;;;5.73;4.80;;;;;;;11.00;34.45;101919.03;5031476;28;20386;-79
2023/03/13 09:19:31;;;;;;;6.83;4.70;;;;;;;11.06;34.44;101926.44;5013438;28;20388;-78
2023/03/13 09:21:56;;;;;;;5.50;4.60;;;;;;;11.06;34.08;101923.81;5012813;28;20380;-77
2023/03/13 09:24:22;;;;;;;7.03;4.70;;;;;;;10.95;34.07;101910.69;5010463;28;20396;-76
2023/03/13 09:26:47;;;;;;;6.70;4.53;;;;;;;11.14;34.32;101912.47;5008540;28;20389;-78
2023/03/13 09:29:13;;;;;;;5.82;4.10;;;;;;;11.23;33.96;101907.09;5011137;28;20475;-77
2023/03/13 09:31:40;;;;;;;8.43;4.80;;;;;;;11.31;33.80;101908.19;5011679;28;20376;-77
2023/03/13 09:34:05;;;;;;;6.47;3.72;;;;;;;11.44;34.31;101898.94;5011037;28;20387;-78
2023/03/13 09:36:30;;;;;;;3.92;3.15;;;;;;;11.46;32.58;101901.44;5012004;28;20383;-78
2023/03/13 09:38:58;;;;;;;4.07;3.30;;;;;;;11.63;32.87;101908.66;5010751;28;21101;-76
2023/03/13 09:41:42;;;;;;;4.50;2.83;;;;;;;11.78;32.29;101902.84;5011940;28;20729;-76
2023/03/13 09:44:36;;;;;;;6.20;3.50;;;;;;;11.88;33.11;101897.44;5011908;28;20408;-76
2023/03/13 09:47:13;;;;;;;6.53;3.55;;;;;;;11.90;32.36;101895.47;5011242;28;20734;-76
2023/03/13 09:49:44;;;;;;;5.32;3.47;;;;;;;11.92;32.94;101882.91;5011166;28;20840;-76
2023/03/13 09:52:33;;;;;;;5.78;3.90;;;;;;;12.00;32.31;101880.34;5010770;28;20519;-78
2023/03/13 09:55:14;;;;;;;7.80;4.22;;;;;;;12.09;32.29;101875.94;5011322;28;20419;-77
2023/03/13 09:57:39;;;;;;;7.70;4.20;;;;;;;12.03;32.10;101867.59;5011593;28;20402;-78
2023/03/13 10:00:12;;;;;;;6.23;4.20;;;;;;;11.90;31.66;101869.75;5013312;28;20380;-80
2023/03/13 10:02:39;;;;;;;7.05;4.53;;;;;;;12.04;32.12;101871.91;5012453;28;20966;-77
2023/03/13 10:05:20;;;;;;;6.13;4.45;;;;;;;12.09;31.23;101858.16;5011348;28;20404;-77
2023/03/13 10:07:46;;;;;;;5.85;3.97;;;;;;;12.05;31.13;101860.28;5013500;28;20475;-77
2023/03/13 10:10:27;;;;;;;4.90;4.00;;;;;;;12.11;31.22;101869.47;5011670;28;20472;-78
2023/03/13 10:13:02;;;;;;;4.78;3.60;;;;;;;12.08;30.88;101861.81;5010633;28;20412;-78
2023/03/13 10:15:41;;;;;;;6.67;4.03;;;;;;;11.93;30.88;101850.88;5009129;28;20458;-78
2023/03/13 10:18:15;;;;;;;6.15;4.10;;;;;;;11.82;30.80;101859.03;5012410;28;20415;-77
2023/03/13 10:20:42;;;;;;;5.07;4.00;;;;;;;11.91;30.86;101847.53;5010076;28;20471;-76
2023/03/13 10:23:46;;;;;;;4.60;4.00;;;;;;;12.07;31.41;101849.53;5012662;28;21030;-76
2023/03/13 10:26:20;;;;;;;5.37;3.80;;;;;;;12.19;31.91;101850.09;4969211;28;20430;-77
2023/03/13 10:28:46;;;;;;;8.17;4.30;;;;;;;12.30;31.42;101851.69;5002951;28;20388;-77
2023/03/13 10:31:35;;;;;;;5.27;4.33;;;;;;;12.00;30.97;101843.13;5010216;28;20392;-77
2023/03/13 10:34:09;;;;;;;6.28;4.40;;;;;;;11.90;31.13;101839.69;5013446;28;20745;-77
2023/03/13 10:36:47;;;;;;;4.90;4.00;;;;;;;12.03;31.21;101845.50;5010321;28;20392;-77
2023/03/13 10:39:18;;;;;;;4.43;3.90;;;;;;;12.38;32.14;101846.47;5009606;28;20933;-77
2023/03/13 10:41:44;;;;;;;4.27;3.80;;;;;;;12.53;30.82;101844.06;5010090;28;20384;-77
2023/03/13 10:44:32;;;;;;;4.40;3.80;;;;;;;12.38;30.50;101833.16;5018112;28;20729;-77
2023/03/13 10:47:01;;;;;;;6.32;4.18;;;;;;;12.27;31.00;101838.72;5009231;28;20845;-77
2023/03/13 10:49:27;;;;;;;4.18;3.72;;;;;;;12.39;32.26;101824.22;5015770;28;20380;-78
2023/03/13 10:51:56;;;;;;;4.53;3.78;;;;;;;12.54;32.43;101817.31;5015043;28;20445;-76
2023/03/13 10:54:27;;;;;;;4.03;3.58;;;;;;;12.54;31.34;101816.50;5014786;28;20380;-79
2023/03/13 10:57:18;;;;;;;4.70;4.07;;;;;;;12.29;30.69;101813.66;5016401;28;20388;-79
2023/03/13 10:59:49;;;;;;;7.65;4.90;;;;;;;12.30;30.21;101828.63;5015751;28;20387;-76
2023/03/13 11:02:22;;;;;;;4.75;4.25;;;;;;;12.31;30.20;101822.31;5026641;28;20872;-77
2023/03/13 11:04:52;;;;;;;5.00;4.20;;;;;;;12.37;30.10;101827.03;5014210;28;20514;-77
2023/03/13 11:07:31;;;;;;;5.45;3.75;;;;;;;12.27;29.93;101820.13;5014518;28;20465;-77
2023/03/13 11:10:01;;;;;;;6.07;4.57;;;;;;;12.10;30.44;101816.47;4998694;28;20392;-78
2023/03/13 11:12:27;;;;;;;6.85;4.28;;;;;;;12.25;30.58;101809.63;5013924;28;20416;-79
2023/03/13 11:14:57;;;;;;;5.07;4.10;;;;;;;12.42;30.70;101792.81;5014450;28;20451;-79
2023/03/13 11:17:39;;;;;;;4.97;4.43;;;;;;;12.37;30.43;101804.91;4998830;28;20392;-77
2023/03/13 11:20:07;;;;;;;6.28;4.53;;;;;;;12.35;30.52;101791.78;5014783;28;20920;-77
2023/03/13 11:23:00;;;;;;;6.10;4.50;;;;;;;12.33;30.60;101790.25;5012499;28;20446;-77
2023/03/13 11:25:37;;;;;;;5.47;4.57;;;;;;;12.47;31.01;101779.03;5014763;28;20426;-77
2023/03/13 11:28:10;;;;;;;6.60;4.55;;;;;;;12.43;30.37;101781.19;5015388;28;20472;-78
2023/03/13 11:31:08;;;;;;;6.97;4.68;;;;;;;12.57;30.34;101771.81;5016630;28;20453;-77